sensor_id;sensor_type;location;lat;lon;timestamp;P1;durP1;ratioP1;P2;durP2;ratioP2
33780;SDS011;20097;50.832;19.100;2023-02-21T00:00:31;4.72;;;2.22;;
33780;SDS011;20097;50.832;19.100;2023-02-21T00:05:53;6.38;;;3.00;;
33780;SDS011;20097;50.832;19.100;2023-02-21T00:11:14;4.63;;;2.85;;
33780;SDS011;20097;50.832;19.100;2023-02-21T00:16:38;3.53;;;2.72;;
33780;SDS011;20097;50.832;19.100;2023-02-21T00:21:59;5.05;;;3.05;;
33780;SDS011;20097;50.832;19.100;2023-02-21T00:27:21;3.75;;;2.47;;
33780;SDS011;20097;50.832;19.100;2023-02-21T00:32:46;3.28;;;2.17;;
33780;SDS011;20097;50.832;19.100;2023-02-21T00:38:09;4.47;;;2.78;;
33780;SDS011;20097;50.832;19.100;2023-02-21T00:43:32;3.28;;;2.40;;
33780;SDS011;20097;50.832;19.100;2023-02-21T00:48:57;3.53;;;2.30;;
33780;SDS011;20097;50.832;19.100;2023-02-21T00:54:19;3.40;;;2.15;;
33780;SDS011;20097;50.832;19.100;2023-02-21T00:59:40;3.08;;;2.38;;
33780;SDS011;20097;50.832;19.100;2023-02-21T01:05:04;4.68;;;3.00;;
33780;SDS011;20097;50.832;19.100;2023-02-21T01:10:27;4.30;;;2.20;;
33780;SDS011;20097;50.832;19.100;2023-02-21T01:15:49;4.47;;;2.67;;
33780;SDS011;20097;50.832;19.100;2023-02-21T01:21:12;2.40;;;2.17;;
33780;SDS011;20097;50.832;19.100;2023-02-21T01:26:35;4.23;;;2.70;;
33780;SDS011;20097;50.832;19.100;2023-02-21T01:31:58;4.43;;;2.55;;
33780;SDS011;20097;50.832;19.100;2023-02-21T01:37:21;5.57;;;2.15;;
33780;SDS011;20097;50.832;19.100;2023-02-21T01:42:44;3.22;;;2.28;;
33780;SDS011;20097;50.832;19.100;2023-02-21T01:48:06;3.58;;;2.40;;
33780;SDS011;20097;50.832;19.100;2023-02-21T01:53:31;5.45;;;2.30;;
33780;SDS011;20097;50.832;19.100;2023-02-21T01:58:54;2.72;;;1.90;;
33780;SDS011;20097;50.832;19.100;2023-02-21T02:04:20;3.25;;;2.75;;
33780;SDS011;20097;50.832;19.100;2023-02-21T02:09:43;3.67;;;2.55;;
33780;SDS011;20097;50.832;19.100;2023-02-21T02:15:08;3.75;;;2.55;;
33780;SDS011;20097;50.832;19.100;2023-02-21T02:26:32;4.32;;;2.45;;
33780;SDS011;20097;50.832;19.100;2023-02-21T02:32:17;2.80;;;2.28;;
33780;SDS011;20097;50.832;19.100;2023-02-21T02:37:44;3.35;;;2.47;;
33780;SDS011;20097;50.832;19.100;2023-02-21T02:42:59;3.33;;;2.22;;
33780;SDS011;20097;50.832;19.100;2023-02-21T02:48:22;3.30;;;2.30;;
33780;SDS011;20097;50.832;19.100;2023-02-21T02:53:33;4.30;;;2.50;;
33780;SDS011;20097;50.832;19.100;2023-02-21T02:58:40;4.28;;;2.67;;
33780;SDS011;20097;50.832;19.100;2023-02-21T03:03:51;5.35;;;2.90;;
33780;SDS011;20097;50.832;19.100;2023-02-21T03:14:25;3.53;;;2.67;;
33780;SDS011;20097;50.832;19.100;2023-02-21T03:19:39;4.37;;;2.77;;
33780;SDS011;20097;50.832;19.100;2023-02-21T03:24:49;4.95;;;2.75;;
33780;SDS011;20097;50.832;19.100;2023-02-21T03:29:55;4.05;;;2.92;;
33780;SDS011;20097;50.832;19.100;2023-02-21T03:35:06;4.15;;;3.75;;
33780;SDS011;20097;50.832;19.100;2023-02-21T03:40:14;4.05;;;3.17;;
33780;SDS011;20097;50.832;19.100;2023-02-21T03:45:24;7.90;;;3.13;;
33780;SDS011;20097;50.832;19.100;2023-02-21T03:50:50;5.80;;;3.42;;
33780;SDS011;20097;50.832;19.100;2023-02-21T03:55:57;4.13;;;2.90;;
33780;SDS011;20097;50.832;19.100;2023-02-21T04:01:11;4.32;;;2.97;;
33780;SDS011;20097;50.832;19.100;2023-02-21T04:06:16;4.07;;;2.67;;
33780;SDS011;20097;50.832;19.100;2023-02-21T04:11:22;2.88;;;2.33;;
33780;SDS011;20097;50.832;19.100;2023-02-21T04:16:28;3.55;;;2.65;;
33780;SDS011;20097;50.832;19.100;2023-02-21T04:21:32;4.55;;;2.42;;
33780;SDS011;20097;50.832;19.100;2023-02-21T04:26:39;3.42;;;2.83;;
33780;SDS011;20097;50.832;19.100;2023-02-21T04:31:44;2.92;;;2.45;;
33780;SDS011;20097;50.832;19.100;2023-02-21T04:36:51;3.25;;;2.58;;
33780;SDS011;20097;50.832;19.100;2023-02-21T04:41:57;2.70;;;2.22;;
33780;SDS011;20097;50.832;19.100;2023-02-21T04:47:01;5.93;;;2.50;;
33780;SDS011;20097;50.832;19.100;2023-02-21T04:52:06;4.80;;;2.10;;
33780;SDS011;20097;50.832;19.100;2023-02-21T04:57:11;2.40;;;2.20;;
33780;SDS011;20097;50.832;19.100;2023-02-21T05:02:16;2.65;;;1.90;;
33780;SDS011;20097;50.832;19.100;2023-02-21T05:07:21;3.23;;;2.00;;
33780;SDS011;20097;50.832;19.100;2023-02-21T05:12:26;2.28;;;2.03;;
33780;SDS011;20097;50.832;19.100;2023-02-21T05:17:31;2.38;;;2.15;;
33780;SDS011;20097;50.832;19.100;2023-02-21T05:22:35;2.42;;;2.00;;
33780;SDS011;20097;50.832;19.100;2023-02-21T05:35:14;2.47;;;1.95;;
33780;SDS011;20097;50.832;19.100;2023-02-21T05:40:20;2.90;;;2.40;;
33780;SDS011;20097;50.832;19.100;2023-02-21T05:45:24;2.97;;;2.42;;
33780;SDS011;20097;50.832;19.100;2023-02-21T05:50:30;2.85;;;2.00;;
33780;SDS011;20097;50.832;19.100;2023-02-21T05:55:34;2.97;;;1.95;;
33780;SDS011;20097;50.832;19.100;2023-02-21T06:05:44;4.68;;;2.25;;
33780;SDS011;20097;50.832;19.100;2023-02-21T06:10:49;3.90;;;2.58;;
33780;SDS011;20097;50.832;19.100;2023-02-21T06:15:54;2.92;;;2.33;;
33780;SDS011;20097;50.832;19.100;2023-02-21T06:20:59;2.97;;;2.40;;
33780;SDS011;20097;50.832;19.100;2023-02-21T06:26:04;3.35;;;2.78;;
33780;SDS011;20097;50.832;19.100;2023-02-21T06:31:09;4.80;;;2.40;;
33780;SDS011;20097;50.832;19.100;2023-02-21T06:36:16;3.63;;;3.25;;
33780;SDS011;20097;50.832;19.100;2023-02-21T06:41:23;3.70;;;2.53;;
33780;SDS011;20097;50.832;19.100;2023-02-21T06:46:29;4.90;;;3.03;;
33780;SDS011;20097;50.832;19.100;2023-02-21T06:51:36;4.65;;;3.42;;
33780;SDS011;20097;50.832;19.100;2023-02-21T06:56:44;4.97;;;3.42;;
33780;SDS011;20097;50.832;19.100;2023-02-21T07:01:48;5.37;;;3.57;;
33780;SDS011;20097;50.832;19.100;2023-02-21T07:06:54;5.88;;;3.10;;
33780;SDS011;20097;50.832;19.100;2023-02-21T07:11:58;5.07;;;4.00;;
33780;SDS011;20097;50.832;19.100;2023-02-21T07:17:04;5.47;;;3.83;;
33780;SDS011;20097;50.832;19.100;2023-02-21T07:22:10;6.28;;;3.97;;
33780;SDS011;20097;50.832;19.100;2023-02-21T07:27:14;4.75;;;3.50;;
33780;SDS011;20097;50.832;19.100;2023-02-21T07:32:19;4.03;;;3.60;;
33780;SDS011;20097;50.832;19.100;2023-02-21T07:42:30;6.75;;;3.97;;
33780;SDS011;20097;50.832;19.100;2023-02-21T07:47:34;5.82;;;4.30;;
33780;SDS011;20097;50.832;19.100;2023-02-21T07:52:40;5.68;;;4.18;;
33780;SDS011;20097;50.832;19.100;2023-02-21T07:57:44;5.55;;;4.22;;
33780;SDS011;20097;50.832;19.100;2023-02-21T08:02:48;9.68;;;4.57;;
33780;SDS011;20097;50.832;19.100;2023-02-21T08:07:54;6.55;;;4.35;;
33780;SDS011;20097;50.832;19.100;2023-02-21T08:12:59;6.72;;;3.85;;
33780;SDS011;20097;50.832;19.100;2023-02-21T08:18:03;5.70;;;3.88;;
33780;SDS011;20097;50.832;19.100;2023-02-21T08:23:09;4.32;;;3.42;;
33780;SDS011;20097;50.832;19.100;2023-02-21T08:28:14;5.13;;;3.08;;
33780;SDS011;20097;50.832;19.100;2023-02-21T08:33:19;3.35;;;2.30;;
33780;SDS011;20097;50.832;19.100;2023-02-21T08:38:25;4.88;;;3.30;;
33780;SDS011;20097;50.832;19.100;2023-02-21T08:43:30;6.30;;;4.63;;
33780;SDS011;20097;50.832;19.100;2023-02-21T08:48:35;10.40;;;5.35;;
33780;SDS011;20097;50.832;19.100;2023-02-21T08:53:41;5.03;;;4.05;;
33780;SDS011;20097;50.832;19.100;2023-02-21T08:58:46;5.00;;;3.15;;
33780;SDS011;20097;50.832;19.100;2023-02-21T09:03:50;4.55;;;2.30;;
33780;SDS011;20097;50.832;19.100;2023-02-21T09:08:56;2.58;;;2.10;;
33780;SDS011;20097;50.832;19.100;2023-02-21T09:14:00;3.13;;;2.08;;
33780;SDS011;20097;50.832;19.100;2023-02-21T09:19:07;2.42;;;2.00;;
33780;SDS011;20097;50.832;19.100;2023-02-21T09:29:17;2.75;;;2.22;;
33780;SDS011;20097;50.832;19.100;2023-02-21T09:34:22;3.92;;;2.72;;
33780;SDS011;20097;50.832;19.100;2023-02-21T09:39:28;3.75;;;2.58;;
33780;SDS011;20097;50.832;19.100;2023-02-21T09:44:32;3.35;;;2.33;;
33780;SDS011;20097;50.832;19.100;2023-02-21T09:49:38;4.38;;;2.78;;
33780;SDS011;20097;50.832;19.100;2023-02-21T09:54:49;4.90;;;3.13;;
33780;SDS011;20097;50.832;19.100;2023-02-21T09:59:59;6.03;;;3.20;;
33780;SDS011;20097;50.832;19.100;2023-02-21T10:05:14;5.63;;;2.67;;
33780;SDS011;20097;50.832;19.100;2023-02-21T10:10:33;4.82;;;2.60;;
33780;SDS011;20097;50.832;19.100;2023-02-21T10:15:47;4.97;;;3.38;;
33780;SDS011;20097;50.832;19.100;2023-02-21T10:20:58;5.13;;;3.40;;
33780;SDS011;20097;50.832;19.100;2023-02-21T10:26:09;5.30;;;3.22;;
33780;SDS011;20097;50.832;19.100;2023-02-21T10:31:18;5.22;;;3.40;;
33780;SDS011;20097;50.832;19.100;2023-02-21T10:36:28;5.68;;;2.70;;
33780;SDS011;20097;50.832;19.100;2023-02-21T10:41:35;4.03;;;2.90;;
33780;SDS011;20097;50.832;19.100;2023-02-21T10:46:44;4.57;;;2.83;;
33780;SDS011;20097;50.832;19.100;2023-02-21T10:52:04;3.33;;;2.50;;
33780;SDS011;20097;50.832;19.100;2023-02-21T10:57:14;4.13;;;2.75;;
33780;SDS011;20097;50.832;19.100;2023-02-21T11:02:24;3.80;;;2.92;;
33780;SDS011;20097;50.832;19.100;2023-02-21T11:07:35;3.15;;;2.30;;
33780;SDS011;20097;50.832;19.100;2023-02-21T11:12:41;2.78;;;1.30;;
33780;SDS011;20097;50.832;19.100;2023-02-21T11:17:46;2.85;;;1.60;;
33780;SDS011;20097;50.832;19.100;2023-02-21T11:23:18;2.17;;;1.33;;
33780;SDS011;20097;50.832;19.100;2023-02-21T11:28:29;8.35;;;1.95;;
33780;SDS011;20097;50.832;19.100;2023-02-21T11:33:35;2.95;;;1.65;;
33780;SDS011;20097;50.832;19.100;2023-02-21T11:38:43;3.47;;;1.92;;
33780;SDS011;20097;50.832;19.100;2023-02-21T11:44:17;3.67;;;2.22;;
33780;SDS011;20097;50.832;19.100;2023-02-21T11:49:33;2.33;;;1.63;;
33780;SDS011;20097;50.832;19.100;2023-02-21T11:54:49;1.85;;;1.63;;
33780;SDS011;20097;50.832;19.100;2023-02-21T11:59:58;6.78;;;1.50;;
33780;SDS011;20097;50.832;19.100;2023-02-21T12:05:24;2.10;;;1.80;;
33780;SDS011;20097;50.832;19.100;2023-02-21T12:11:05;2.45;;;1.50;;
33780;SDS011;20097;50.832;19.100;2023-02-21T12:16:45;4.18;;;1.85;;
33780;SDS011;20097;50.832;19.100;2023-02-21T12:22:06;2.92;;;1.70;;
33780;SDS011;20097;50.832;19.100;2023-02-21T12:27:26;3.67;;;1.90;;
33780;SDS011;20097;50.832;19.100;2023-02-21T12:32:47;3.97;;;2.17;;
33780;SDS011;20097;50.832;19.100;2023-02-21T12:37:54;2.45;;;1.85;;
33780;SDS011;20097;50.832;19.100;2023-02-21T12:48:30;3.20;;;2.17;;
33780;SDS011;20097;50.832;19.100;2023-02-21T12:53:40;3.42;;;1.88;;
33780;SDS011;20097;50.832;19.100;2023-02-21T12:58:51;3.47;;;1.65;;
33780;SDS011;20097;50.832;19.100;2023-02-21T13:04:09;4.32;;;1.60;;
33780;SDS011;20097;50.832;19.100;2023-02-21T13:09:27;5.82;;;2.85;;
33780;SDS011;20097;50.832;19.100;2023-02-21T13:14:38;6.47;;;3.08;;
33780;SDS011;20097;50.832;19.100;2023-02-21T13:19:49;5.53;;;2.85;;
33780;SDS011;20097;50.832;19.100;2023-02-21T13:25:03;7.40;;;2.40;;
33780;SDS011;20097;50.832;19.100;2023-02-21T13:30:24;3.00;;;1.92;;
33780;SDS011;20097;50.832;19.100;2023-02-21T13:35:43;3.40;;;1.85;;
33780;SDS011;20097;50.832;19.100;2023-02-21T13:40:48;5.03;;;1.95;;
33780;SDS011;20097;50.832;19.100;2023-02-21T13:45:59;3.70;;;1.70;;
33780;SDS011;20097;50.832;19.100;2023-02-21T13:52:14;6.20;;;1.92;;
33780;SDS011;20097;50.832;19.100;2023-02-21T14:03:38;6.78;;;2.05;;
33780;SDS011;20097;50.832;19.100;2023-02-21T14:08:43;3.78;;;2.13;;
33780;SDS011;20097;50.832;19.100;2023-02-21T14:13:52;4.53;;;2.10;;
33780;SDS011;20097;50.832;19.100;2023-02-21T14:19:00;7.57;;;3.20;;
33780;SDS011;20097;50.832;19.100;2023-02-21T14:24:10;6.32;;;2.70;;
33780;SDS011;20097;50.832;19.100;2023-02-21T14:29:29;11.48;;;2.97;;
33780;SDS011;20097;50.832;19.100;2023-02-21T14:34:49;4.10;;;2.50;;
33780;SDS011;20097;50.832;19.100;2023-02-21T14:39:59;8.25;;;3.38;;
33780;SDS011;20097;50.832;19.100;2023-02-21T14:45:24;8.23;;;3.00;;
33780;SDS011;20097;50.832;19.100;2023-02-21T14:57:01;14.10;;;3.85;;
33780;SDS011;20097;50.832;19.100;2023-02-21T15:02:29;8.32;;;3.22;;
33780;SDS011;20097;50.832;19.100;2023-02-21T15:07:48;7.82;;;3.35;;
33780;SDS011;20097;50.832;19.100;2023-02-21T15:13:03;7.70;;;2.85;;
33780;SDS011;20097;50.832;19.100;2023-02-21T15:18:09;10.55;;;3.03;;
33780;SDS011;20097;50.832;19.100;2023-02-21T15:23:19;10.05;;;3.42;;
33780;SDS011;20097;50.832;19.100;2023-02-21T15:28:31;13.00;;;3.97;;
33780;SDS011;20097;50.832;19.100;2023-02-21T15:33:37;12.82;;;4.13;;
33780;SDS011;20097;50.832;19.100;2023-02-21T15:38:45;12.68;;;4.15;;
33780;SDS011;20097;50.832;19.100;2023-02-21T15:43:55;11.70;;;4.32;;
33780;SDS011;20097;50.832;19.100;2023-02-21T15:49:06;14.00;;;3.83;;
33780;SDS011;20097;50.832;19.100;2023-02-21T15:54:26;13.13;;;3.60;;
33780;SDS011;20097;50.832;19.100;2023-02-21T15:59:33;11.93;;;4.70;;
33780;SDS011;20097;50.832;19.100;2023-02-21T16:04:39;17.75;;;5.35;;
33780;SDS011;20097;50.832;19.100;2023-02-21T16:09:47;14.80;;;3.90;;
33780;SDS011;20097;50.832;19.100;2023-02-21T16:14:59;9.27;;;3.97;;
33780;SDS011;20097;50.832;19.100;2023-02-21T16:20:13;12.27;;;3.50;;
33780;SDS011;20097;50.832;19.100;2023-02-21T16:25:21;8.95;;;3.42;;
33780;SDS011;20097;50.832;19.100;2023-02-21T16:30:27;14.63;;;4.45;;
33780;SDS011;20097;50.832;19.100;2023-02-21T16:35:33;15.52;;;4.18;;
33780;SDS011;20097;50.832;19.100;2023-02-21T16:40:39;11.23;;;4.47;;
33780;SDS011;20097;50.832;19.100;2023-02-21T16:45:44;14.05;;;3.42;;
33780;SDS011;20097;50.832;19.100;2023-02-21T16:50:50;12.85;;;5.45;;
33780;SDS011;20097;50.832;19.100;2023-02-21T16:55:56;13.88;;;4.80;;
33780;SDS011;20097;50.832;19.100;2023-02-21T17:01:02;16.38;;;5.10;;
33780;SDS011;20097;50.832;19.100;2023-02-21T17:06:13;9.98;;;3.70;;
33780;SDS011;20097;50.832;19.100;2023-02-21T17:11:22;11.93;;;4.45;;
33780;SDS011;20097;50.832;19.100;2023-02-21T17:16:26;9.32;;;3.53;;
33780;SDS011;20097;50.832;19.100;2023-02-21T17:21:31;12.45;;;4.55;;
33780;SDS011;20097;50.832;19.100;2023-02-21T17:26:36;14.73;;;3.75;;
33780;SDS011;20097;50.832;19.100;2023-02-21T17:31:41;15.70;;;4.18;;
33780;SDS011;20097;50.832;19.100;2023-02-21T17:36:46;18.45;;;5.65;;
33780;SDS011;20097;50.832;19.100;2023-02-21T17:41:53;11.32;;;3.75;;
33780;SDS011;20097;50.832;19.100;2023-02-21T17:46:57;10.68;;;4.38;;
33780;SDS011;20097;50.832;19.100;2023-02-21T17:52:03;17.63;;;4.35;;
33780;SDS011;20097;50.832;19.100;2023-02-21T17:57:09;12.45;;;4.15;;
33780;SDS011;20097;50.832;19.100;2023-02-21T18:02:14;17.10;;;5.82;;
33780;SDS011;20097;50.832;19.100;2023-02-21T18:07:20;18.55;;;5.47;;
33780;SDS011;20097;50.832;19.100;2023-02-21T18:12:27;15.93;;;4.63;;
33780;SDS011;20097;50.832;19.100;2023-02-21T18:17:33;17.27;;;4.47;;
33780;SDS011;20097;50.832;19.100;2023-02-21T18:22:37;11.80;;;3.50;;
33780;SDS011;20097;50.832;19.100;2023-02-21T18:27:43;13.18;;;4.22;;
33780;SDS011;20097;50.832;19.100;2023-02-21T18:32:47;18.15;;;5.00;;
33780;SDS011;20097;50.832;19.100;2023-02-21T18:37:52;16.75;;;5.22;;
33780;SDS011;20097;50.832;19.100;2023-02-21T18:42:58;13.77;;;4.75;;
33780;SDS011;20097;50.832;19.100;2023-02-21T18:48:03;13.50;;;4.75;;
33780;SDS011;20097;50.832;19.100;2023-02-21T18:53:07;14.35;;;4.78;;
33780;SDS011;20097;50.832;19.100;2023-02-21T18:58:14;13.68;;;4.72;;
33780;SDS011;20097;50.832;19.100;2023-02-21T19:03:18;10.05;;;4.70;;
33780;SDS011;20097;50.832;19.100;2023-02-21T19:08:23;16.58;;;6.90;;
33780;SDS011;20097;50.832;19.100;2023-02-21T19:13:28;19.48;;;5.70;;
33780;SDS011;20097;50.832;19.100;2023-02-21T19:18:33;13.63;;;4.32;;
33780;SDS011;20097;50.832;19.100;2023-02-21T19:23:37;15.50;;;3.90;;
33780;SDS011;20097;50.832;19.100;2023-02-21T19:28:43;17.15;;;4.90;;
33780;SDS011;20097;50.832;19.100;2023-02-21T19:33:48;16.15;;;5.10;;
33780;SDS011;20097;50.832;19.100;2023-02-21T19:38:52;16.55;;;6.15;;
33780;SDS011;20097;50.832;19.100;2023-02-21T19:43:58;21.58;;;8.65;;
33780;SDS011;20097;50.832;19.100;2023-02-21T19:49:03;17.63;;;6.50;;
33780;SDS011;20097;50.832;19.100;2023-02-21T19:54:08;19.98;;;7.35;;
33780;SDS011;20097;50.832;19.100;2023-02-21T19:59:14;26.85;;;8.32;;
33780;SDS011;20097;50.832;19.100;2023-02-21T20:04:19;13.63;;;4.25;;
33780;SDS011;20097;50.832;19.100;2023-02-21T20:09:25;16.13;;;5.28;;
33780;SDS011;20097;50.832;19.100;2023-02-21T20:14:31;20.67;;;5.25;;
33780;SDS011;20097;50.832;19.100;2023-02-21T20:19:35;13.77;;;4.63;;
33780;SDS011;20097;50.832;19.100;2023-02-21T20:24:40;16.15;;;5.20;;
33780;SDS011;20097;50.832;19.100;2023-02-21T20:29:48;18.35;;;5.72;;
33780;SDS011;20097;50.832;19.100;2023-02-21T20:34:52;16.77;;;6.63;;
33780;SDS011;20097;50.832;19.100;2023-02-21T20:39:58;20.58;;;6.75;;
33780;SDS011;20097;50.832;19.100;2023-02-21T20:45:05;21.60;;;6.85;;
33780;SDS011;20097;50.832;19.100;2023-02-21T20:50:11;27.40;;;8.55;;
33780;SDS011;20097;50.832;19.100;2023-02-21T21:00:24;27.20;;;7.32;;
33780;SDS011;20097;50.832;19.100;2023-02-21T21:05:31;20.30;;;7.57;;
33780;SDS011;20097;50.832;19.100;2023-02-21T21:10:36;22.95;;;7.85;;
33780;SDS011;20097;50.832;19.100;2023-02-21T21:15:42;28.10;;;8.85;;
33780;SDS011;20097;50.832;19.100;2023-02-21T21:20:46;20.50;;;6.85;;
33780;SDS011;20097;50.832;19.100;2023-02-21T21:25:51;23.73;;;7.15;;
33780;SDS011;20097;50.832;19.100;2023-02-21T21:30:57;22.08;;;7.60;;
33780;SDS011;20097;50.832;19.100;2023-02-21T21:36:02;20.30;;;6.35;;
33780;SDS011;20097;50.832;19.100;2023-02-21T21:41:11;26.15;;;7.80;;
33780;SDS011;20097;50.832;19.100;2023-02-21T21:46:18;22.92;;;7.05;;
33780;SDS011;20097;50.832;19.100;2023-02-21T21:51:25;19.55;;;6.88;;
33780;SDS011;20097;50.832;19.100;2023-02-21T21:56:30;19.15;;;5.60;;
33780;SDS011;20097;50.832;19.100;2023-02-21T22:01:36;16.75;;;6.47;;
33780;SDS011;20097;50.832;19.100;2023-02-21T22:06:42;22.70;;;5.93;;
33780;SDS011;20097;50.832;19.100;2023-02-21T22:11:49;21.45;;;5.75;;
33780;SDS011;20097;50.832;19.100;2023-02-21T22:16:55;19.90;;;5.93;;
33780;SDS011;20097;50.832;19.100;2023-02-21T22:22:00;23.00;;;5.30;;
33780;SDS011;20097;50.832;19.100;2023-02-21T22:27:09;17.83;;;6.18;;
33780;SDS011;20097;50.832;19.100;2023-02-21T22:32:15;15.52;;;5.85;;
33780;SDS011;20097;50.832;19.100;2023-02-21T22:37:19;20.58;;;6.90;;
33780;SDS011;20097;50.832;19.100;2023-02-21T22:42:24;20.13;;;6.13;;
33780;SDS011;20097;50.832;19.100;2023-02-21T22:47:29;18.50;;;6.38;;
33780;SDS011;20097;50.832;19.100;2023-02-21T22:52:34;25.42;;;8.07;;
33780;SDS011;20097;50.832;19.100;2023-02-21T22:57:39;31.33;;;9.93;;
33780;SDS011;20097;50.832;19.100;2023-02-21T23:02:46;34.90;;;8.80;;
33780;SDS011;20097;50.832;19.100;2023-02-21T23:07:53;23.80;;;9.38;;
33780;SDS011;20097;50.832;19.100;2023-02-21T23:13:00;28.70;;;10.38;;
33780;SDS011;20097;50.832;19.100;2023-02-21T23:18:06;33.70;;;12.00;;
33780;SDS011;20097;50.832;19.100;2023-02-21T23:23:11;38.83;;;13.00;;
33780;SDS011;20097;50.832;19.100;2023-02-21T23:28:16;26.40;;;9.60;;
33780;SDS011;20097;50.832;19.100;2023-02-21T23:33:22;28.25;;;9.38;;
33780;SDS011;20097;50.832;19.100;2023-02-21T23:38:28;21.25;;;8.00;;
33780;SDS011;20097;50.832;19.100;2023-02-21T23:43:34;18.58;;;7.60;;
33780;SDS011;20097;50.832;19.100;2023-02-21T23:48:41;22.55;;;7.68;;
33780;SDS011;20097;50.832;19.100;2023-02-21T23:53:49;26.05;;;7.68;;
33780;SDS011;20097;50.832;19.100;2023-02-21T23:58:53;25.95;;;8.32;;
